APL New Jersey — A8NM6 — position and weather

sailwx.info

Track history (hours):
 
Tides and Currents Weather Stations Pressure Air Temp Water Temp Dewpoint Dewpoint Depression Visibility Wind Speed Wind Dir Waves Ship Positions

APL New Jersey

Last reported at 2014-Dec-21 20:29 UTC. Time now 2014-Dec-21 21:31 UTC.
Position N 22°28' E 113°53'.

Length 293 m; draft 11.6 m.

Type: Cargo ship. MMSI: 636013522.

Date/timePositionNaut miles runAvg speedWind from/ knotsBaromVisibWave heightAir tempDewpointWater temp
2014-Dec-21 20:29N 22°28' E 113°53'0 0.0
2014-Dec-21 19:29N 22°28' E 113°53'0 0.0
2014-Dec-21 18:29N 22°28' E 113°53'0 0.1
2014-Dec-21 17:32N 22°28' E 113°53'15 7.6
2014-Dec-21 15:34N 22°18' E 114°06'10 9.3
2014-Dec-21 14:30N 22°11' E 114°12'8 8.5
2014-Dec-21 13:33N 22°09' E 114°21'8 8.0
2014-Dec-21 12:33N 22°03' E 114°26'1312.5
2014-Dec-21 11:31N 21°51' E 114°22'  
2014-Dec-18 04:20N 01°17' E 104°15'1619.5
2014-Dec-18 03:32N 01°14' E 103°59'8 8.4
2014-Dec-18 02:33N 01°15' E 103°51'1 0.2
2014-Dec-18 00:14N 01°16' E 103°51'0 0.0
2014-Dec-17 20:32N 01°16' E 103°51'0 0.0
2014-Dec-17 19:20N 01°16' E 103°51'0 0.0
2014-Dec-17 18:08N 01°16' E 103°51'0 0.0
2014-Dec-17 17:32N 01°16' E 103°51'0 0.0
2014-Dec-17 15:14N 01°16' E 103°51'0 0.0
2014-Dec-17 14:14N 01°16' E 103°51'0 0.0
2014-Dec-17 13:32N 01°16' E 103°51'0 0.0
2014-Dec-17 12:20N 01°16' E 103°51'0 0.0
2014-Dec-17 11:20N 01°16' E 103°51'0 0.0
2014-Dec-17 10:32N 01°16' E 103°51'0 0.0
2014-Dec-17 09:32N 01°16' E 103°51'0 0.0
2014-Dec-17 07:26N 01°16' E 103°51'0 0.0
2014-Dec-17 06:32N 01°16' E 103°51'0 0.0
2014-Dec-17 05:26N 01°16' E 103°51'0 0.0
2014-Dec-17 04:26N 01°16' E 103°51'0 0.0
2014-Dec-17 03:29N 01°16' E 103°51'0 0.0
2014-Dec-17 02:23N 01°16' E 103°51'0 0.0
2014-Dec-17 01:32N 01°16' E 103°51'0 0.0
2014-Dec-17 00:20N 01°16' E 103°51'0 0.0
2014-Dec-16 23:26N 01°16' E 103°51'0 0.0
2014-Dec-16 15:14N 01°16' E 103°51'0 0.0
2014-Dec-16 14:29N 01°16' E 103°51'0 0.0
2014-Dec-16 11:17N 01°16' E 103°51'0 0.0
2014-Dec-16 10:32N 01°16' E 103°51'0 0.0
2014-Dec-16 09:11N 01°16' E 103°51'0 0.0
2014-Dec-16 08:08N 01°16' E 103°51'0 0.0
2014-Dec-16 06:11N 01°16' E 103°51'0 0.0
2014-Dec-16 05:24N 01°16' E 103°51'0 0.5
2014-Dec-16 04:32N 01°16' E 103°51'5 4.8
2014-Dec-16 03:32N 01°14' E 103°56'7 7.3
2014-Dec-16 02:33N 01°16' E 104°02'  
2014-Dec-12 15:33N 22°20' E 119°54'1919.0
2014-Dec-12 14:33N 22°32' E 120°10'9 8.4
2014-Dec-12 13:30N 22°34' E 120°19'0 0.0
2014-Dec-12 12:30N 22°34' E 120°19'0 0.0
2014-Dec-12 11:30N 22°34' E 120°19'0 0.0
2014-Dec-12 10:30N 22°34' E 120°19'0 0.0
2014-Dec-12 09:30N 22°34' E 120°19'0 0.0
2014-Dec-12 08:30N 22°34' E 120°19'0 0.0
2014-Dec-12 07:30N 22°34' E 120°19'0 0.0
2014-Dec-12 06:30N 22°34' E 120°19'0 0.0
2014-Dec-12 05:30N 22°34' E 120°19'0 0.0
2014-Dec-12 04:30N 22°34' E 120°19'0 0.0
2014-Dec-12 03:30N 22°34' E 120°19'0 0.0
2014-Dec-12 02:30N 22°34' E 120°19'0 0.0
2014-Dec-12 01:24N 22°34' E 120°19'0 0.0
2014-Dec-12 00:30N 22°34' E 120°19'0 0.0
2014-Dec-11 22:12N 22°34' E 120°19'0 0.0
2014-Dec-11 21:30N 22°34' E 120°19'0 0.0
2014-Dec-11 20:30N 22°34' E 120°19'  
Track history (hours):
 
Tides and Currents Weather Stations Pressure Air Temp Water Temp Dewpoint Dewpoint Depression Visibility Wind Speed Wind Dir Waves Ship Positions

APL New Jersey

Last reported at 2014-Dec-21 20:29 UTC. Time now 2014-Dec-21 21:31 UTC.
Position N 22°28' E 113°53'.

Length 293 m; draft 11.6 m.

Type: Cargo ship. MMSI: 636013522.

Date/timePositionNaut miles runAvg speedWind from/ knotsBaromVisibWave heightAir tempDewpointWater temp
2014-Dec-21 20:29N 22°28' E 113°53'0 0.0
2014-Dec-21 19:29N 22°28' E 113°53'0 0.0
2014-Dec-21 18:29N 22°28' E 113°53'0 0.1
2014-Dec-21 17:32N 22°28' E 113°53'15 7.6
2014-Dec-21 15:34N 22°18' E 114°06'10 9.3
2014-Dec-21 14:30N 22°11' E 114°12'8 8.5
2014-Dec-21 13:33N 22°09' E 114°21'8 8.0
2014-Dec-21 12:33N 22°03' E 114°26'1312.5
2014-Dec-21 11:31N 21°51' E 114°22'  
2014-Dec-18 04:20N 01°17' E 104°15'1619.5
2014-Dec-18 03:32N 01°14' E 103°59'8 8.4
2014-Dec-18 02:33N 01°15' E 103°51'1 0.2
2014-Dec-18 00:14N 01°16' E 103°51'0 0.0
2014-Dec-17 20:32N 01°16' E 103°51'0 0.0
2014-Dec-17 19:20N 01°16' E 103°51'0 0.0
2014-Dec-17 18:08N 01°16' E 103°51'0 0.0
2014-Dec-17 17:32N 01°16' E 103°51'0 0.0
2014-Dec-17 15:14N 01°16' E 103°51'0 0.0
2014-Dec-17 14:14N 01°16' E 103°51'0 0.0
2014-Dec-17 13:32N 01°16' E 103°51'0 0.0
2014-Dec-17 12:20N 01°16' E 103°51'0 0.0
2014-Dec-17 11:20N 01°16' E 103°51'0 0.0
2014-Dec-17 10:32N 01°16' E 103°51'0 0.0
2014-Dec-17 09:32N 01°16' E 103°51'0 0.0
2014-Dec-17 07:26N 01°16' E 103°51'0 0.0
2014-Dec-17 06:32N 01°16' E 103°51'0 0.0
2014-Dec-17 05:26N 01°16' E 103°51'0 0.0
2014-Dec-17 04:26N 01°16' E 103°51'0 0.0
2014-Dec-17 03:29N 01°16' E 103°51'0 0.0
2014-Dec-17 02:23N 01°16' E 103°51'0 0.0
2014-Dec-17 01:32N 01°16' E 103°51'0 0.0
2014-Dec-17 00:20N 01°16' E 103°51'0 0.0
2014-Dec-16 23:26N 01°16' E 103°51'0 0.0
2014-Dec-16 15:14N 01°16' E 103°51'0 0.0
2014-Dec-16 14:29N 01°16' E 103°51'0 0.0
2014-Dec-16 11:17N 01°16' E 103°51'0 0.0
2014-Dec-16 10:32N 01°16' E 103°51'0 0.0
2014-Dec-16 09:11N 01°16' E 103°51'0 0.0
2014-Dec-16 08:08N 01°16' E 103°51'0 0.0
2014-Dec-16 06:11N 01°16' E 103°51'0 0.0
2014-Dec-16 05:24N 01°16' E 103°51'0 0.5
2014-Dec-16 04:32N 01°16' E 103°51'5 4.8
2014-Dec-16 03:32N 01°14' E 103°56'7 7.3
2014-Dec-16 02:33N 01°16' E 104°02'  
2014-Dec-12 15:33N 22°20' E 119°54'1919.0
2014-Dec-12 14:33N 22°32' E 120°10'9 8.4
2014-Dec-12 13:30N 22°34' E 120°19'0 0.0
2014-Dec-12 12:30N 22°34' E 120°19'0 0.0
2014-Dec-12 11:30N 22°34' E 120°19'0 0.0
2014-Dec-12 10:30N 22°34' E 120°19'0 0.0
2014-Dec-12 09:30N 22°34' E 120°19'0 0.0
2014-Dec-12 08:30N 22°34' E 120°19'0 0.0
2014-Dec-12 07:30N 22°34' E 120°19'0 0.0
2014-Dec-12 06:30N 22°34' E 120°19'0 0.0
2014-Dec-12 05:30N 22°34' E 120°19'0 0.0
2014-Dec-12 04:30N 22°34' E 120°19'0 0.0
2014-Dec-12 03:30N 22°34' E 120°19'0 0.0
2014-Dec-12 02:30N 22°34' E 120°19'0 0.0
2014-Dec-12 01:24N 22°34' E 120°19'0 0.0
2014-Dec-12 00:30N 22°34' E 120°19'0 0.0
2014-Dec-11 22:12N 22°34' E 120°19'0 0.0
2014-Dec-11 21:30N 22°34' E 120°19'0 0.0
2014-Dec-11 20:30N 22°34' E 120°19'  

Dump ship's entire track history